createdAt,value
2022-12-20T00:01:20.554Z,62.50
2022-12-20T00:04:22.364Z,62.46
2022-12-20T00:07:23.902Z,62.35
2022-12-20T00:10:25.446Z,62.45
2022-12-20T00:13:26.994Z,62.56
2022-12-20T00:16:29.550Z,62.58
2022-12-20T00:19:31.171Z,62.39
2022-12-20T00:22:32.718Z,62.55
2022-12-20T00:25:34.279Z,62.47
2022-12-20T00:28:37.356Z,62.52
2022-12-20T00:31:38.998Z,62.59
2022-12-20T00:34:40.594Z,62.64
2022-12-20T00:37:42.201Z,62.50
2022-12-20T00:40:43.816Z,62.48
2022-12-20T00:43:45.382Z,62.42
2022-12-20T00:46:46.938Z,62.54
2022-12-20T00:49:48.579Z,62.47
2022-12-20T00:52:50.103Z,62.69
2022-12-20T00:55:51.647Z,62.54
2022-12-20T00:58:54.756Z,62.38
2022-12-20T01:01:56.499Z,62.54
2022-12-20T01:04:58.114Z,62.55
2022-12-20T01:07:59.858Z,62.54
2022-12-20T01:11:12.754Z,62.52
2022-12-20T01:14:16.065Z,62.46
2022-12-20T01:17:18.265Z,62.60
2022-12-20T01:20:19.782Z,62.44
2022-12-20T01:23:21.424Z,62.47
2022-12-20T01:26:25.636Z,62.56
2022-12-20T01:29:27.202Z,62.51
2022-12-20T01:32:28.986Z,62.71
2022-12-20T01:35:30.515Z,62.52
2022-12-20T01:38:32.612Z,62.57
2022-12-20T01:41:35.557Z,62.52
2022-12-20T01:44:43.224Z,62.63
2022-12-20T01:47:44.829Z,62.57
2022-12-20T01:50:48.145Z,62.58
2022-12-20T01:53:55.523Z,62.51
2022-12-20T01:57:19.537Z,62.52
2022-12-20T02:00:21.694Z,62.53
2022-12-20T02:03:23.435Z,62.55
2022-12-20T02:06:26.663Z,62.52
2022-12-20T02:09:29.118Z,62.46
2022-12-20T02:12:40.154Z,62.48
2022-12-20T02:15:58.134Z,62.55
2022-12-20T02:19:57.246Z,62.65
2022-12-20T02:23:28.257Z,62.50
2022-12-20T02:26:48.361Z,62.49
2022-12-20T02:30:14.351Z,62.49
2022-12-20T02:33:15.921Z,62.52
2022-12-20T02:36:18.653Z,62.58
2022-12-20T02:39:23.661Z,62.55
2022-12-20T02:42:28.090Z,62.47
2022-12-20T02:45:34.723Z,62.50
2022-12-20T02:48:38.941Z,62.61
2022-12-20T02:51:43.519Z,62.47
2022-12-20T02:54:45.174Z,62.61
2022-12-20T02:58:00.155Z,62.58
2022-12-20T03:01:08.900Z,62.51
2022-12-20T03:04:10.930Z,62.46
2022-12-20T03:07:16.695Z,62.69
2022-12-20T03:10:18.372Z,62.52
2022-12-20T03:13:20.191Z,62.45
2022-12-20T03:16:21.909Z,62.47
2022-12-20T03:19:23.520Z,62.40
2022-12-20T03:22:25.111Z,62.54
2022-12-20T03:25:26.974Z,62.61
2022-12-20T03:28:28.591Z,62.39
2022-12-20T03:31:30.316Z,62.52
2022-12-20T03:34:32.319Z,62.53
2022-12-20T03:37:33.928Z,62.58
2022-12-20T03:40:35.526Z,62.36
2022-12-20T03:43:37.093Z,62.53
2022-12-20T03:46:38.710Z,62.51
2022-12-20T03:49:40.501Z,62.46
2022-12-20T03:52:42.022Z,62.54
2022-12-20T03:55:45.609Z,62.43
2022-12-20T03:58:47.360Z,62.51
2022-12-20T04:01:48.963Z,62.57
2022-12-20T04:04:50.611Z,62.34
2022-12-20T04:07:52.169Z,62.41
2022-12-20T04:11:12.472Z,62.42
2022-12-20T04:14:14.184Z,62.41
2022-12-20T04:17:15.688Z,62.40
2022-12-20T04:20:20.513Z,62.31
2022-12-20T04:23:22.118Z,62.49
2022-12-20T04:26:24.232Z,62.51
2022-12-20T04:29:25.871Z,62.50
2022-12-20T04:32:27.432Z,62.53
2022-12-20T04:35:29.128Z,62.60
2022-12-20T04:38:30.931Z,62.58
2022-12-20T04:41:32.554Z,62.49
2022-12-20T04:44:34.132Z,62.52
2022-12-20T04:47:35.691Z,62.40
2022-12-20T04:50:37.571Z,62.59
2022-12-20T04:53:48.207Z,62.76
2022-12-20T04:56:49.834Z,62.38
2022-12-20T04:59:51.399Z,62.40
2022-12-20T05:02:52.982Z,62.52
2022-12-20T05:05:54.644Z,62.58
2022-12-20T05:08:56.257Z,62.68
2022-12-20T05:11:57.817Z,62.74
2022-12-20T05:14:59.308Z,62.67
2022-12-20T05:18:01.021Z,62.60
2022-12-20T05:21:22.264Z,62.60
2022-12-20T05:24:42.202Z,62.67
2022-12-20T05:27:43.738Z,62.62
2022-12-20T05:30:45.300Z,62.62
2022-12-20T05:33:46.896Z,62.66
2022-12-20T05:36:48.427Z,62.69
2022-12-20T05:39:50.503Z,62.33
2022-12-20T05:42:52.106Z,62.94
2022-12-20T05:45:53.757Z,62.75
2022-12-20T05:48:55.331Z,62.73
2022-12-20T05:51:56.879Z,62.59
2022-12-20T05:54:58.433Z,62.66
2022-12-20T05:57:59.949Z,62.65
2022-12-20T06:01:07.192Z,62.67
2022-12-20T06:04:08.852Z,62.59
2022-12-20T06:07:10.403Z,62.74
2022-12-20T06:10:12.268Z,62.81
2022-12-20T06:13:13.826Z,62.80
2022-12-20T06:16:15.627Z,62.57
2022-12-20T06:19:21.471Z,62.57
2022-12-20T06:22:23.485Z,62.28
2022-12-20T06:25:25.687Z,62.51
2022-12-20T06:28:27.322Z,62.51
2022-12-20T06:31:29.040Z,62.54
2022-12-20T06:34:31.427Z,62.53
2022-12-20T06:37:33.570Z,62.75
2022-12-20T06:40:35.148Z,62.69
2022-12-20T06:43:36.648Z,62.55
2022-12-20T06:46:38.317Z,62.54
2022-12-20T06:49:39.930Z,62.56
2022-12-20T06:52:41.539Z,62.73
2022-12-20T06:55:43.164Z,62.80
2022-12-20T06:58:46.955Z,62.50
2022-12-20T07:01:48.607Z,62.74
2022-12-20T07:04:51.056Z,62.66
2022-12-20T07:07:52.608Z,62.64
2022-12-20T07:10:54.662Z,62.50
2022-12-20T07:13:57.476Z,62.65
2022-12-20T07:16:59.193Z,62.52
2022-12-20T07:20:00.923Z,62.50
2022-12-20T07:23:02.526Z,62.59
2022-12-20T07:26:04.278Z,62.55
2022-12-20T07:29:09.252Z,62.55
2022-12-20T07:32:15.298Z,62.46
2022-12-20T07:35:17.151Z,62.62
2022-12-20T07:38:18.713Z,62.37
2022-12-20T07:41:20.253Z,62.65
2022-12-20T07:44:23.047Z,62.52
2022-12-20T07:47:24.627Z,62.69
2022-12-20T07:50:28.123Z,62.68
2022-12-20T07:53:32.030Z,62.71
2022-12-20T07:56:40.812Z,62.68
2022-12-20T07:59:49.848Z,62.63
2022-12-20T08:03:00.107Z,62.71
2022-12-20T08:06:05.061Z,62.79
2022-12-20T08:09:07.248Z,63.03
2022-12-20T08:12:12.876Z,63.10
2022-12-20T08:15:14.695Z,62.88
2022-12-20T08:18:16.368Z,62.83
2022-12-20T08:21:17.950Z,62.59
2022-12-20T08:24:19.489Z,62.72
2022-12-20T08:27:21.007Z,62.71
2022-12-20T08:30:22.593Z,62.86
2022-12-20T08:33:24.136Z,62.69
2022-12-20T08:36:26.620Z,62.79
2022-12-20T08:39:28.161Z,62.82
2022-12-20T08:42:29.821Z,62.90
2022-12-20T08:45:31.385Z,62.82
2022-12-20T08:48:33.358Z,62.66
2022-12-20T08:51:35.083Z,62.86
2022-12-20T08:54:36.686Z,62.64
2022-12-20T08:57:38.240Z,62.69
2022-12-20T09:00:40.047Z,62.74
2022-12-20T09:03:42.298Z,62.82
2022-12-20T09:06:43.931Z,62.98
2022-12-20T09:09:46.852Z,63.02
2022-12-20T09:12:48.418Z,63.07
2022-12-20T09:15:50.091Z,62.93
2022-12-20T09:18:56.578Z,63.02
2022-12-20T09:22:00.868Z,63.04
2022-12-20T09:25:02.369Z,63.15
2022-12-20T09:28:04.996Z,62.99
2022-12-20T09:31:09.244Z,63.12
2022-12-20T09:34:10.927Z,63.17
2022-12-20T09:37:12.468Z,63.05
2022-12-20T09:40:21.334Z,63.11
2022-12-20T09:43:24.211Z,63.18
2022-12-20T09:46:26.640Z,63.00
2022-12-20T09:49:33.651Z,63.07
2022-12-20T09:52:43.250Z,63.04
2022-12-20T09:56:09.724Z,63.18
2022-12-20T09:59:18.615Z,63.15
2022-12-20T10:05:54.212Z,63.04
2022-12-20T10:09:02.661Z,63.63
2022-12-20T10:12:13.477Z,63.74
2022-12-20T10:15:21.304Z,63.16
2022-12-20T10:18:53.687Z,62.96
2022-12-20T10:22:07.453Z,62.87
2022-12-20T10:25:20.185Z,62.76
2022-12-20T10:28:28.128Z,62.80
2022-12-20T10:31:29.781Z,62.91
2022-12-20T10:34:37.348Z,62.88
2022-12-20T10:38:08.748Z,62.74
2022-12-20T10:41:22.187Z,62.88
2022-12-20T10:44:26.573Z,62.91
2022-12-20T10:47:34.005Z,62.83
2022-12-20T10:50:35.621Z,62.92
2022-12-20T10:53:49.511Z,62.86
2022-12-20T10:57:00.075Z,62.78
2022-12-20T11:00:05.652Z,62.82
2022-12-20T11:03:13.618Z,62.82
2022-12-20T11:06:17.789Z,62.80
2022-12-20T11:09:28.211Z,62.56
2022-12-20T11:12:29.807Z,62.65
2022-12-20T11:15:34.667Z,62.66
2022-12-20T11:19:00.680Z,62.59
2022-12-20T11:22:09.168Z,62.53
2022-12-20T11:25:19.511Z,62.57
2022-12-20T11:28:23.691Z,62.55
2022-12-20T11:31:48.659Z,62.49
2022-12-20T11:34:58.997Z,62.46
2022-12-20T11:38:27.685Z,62.61
2022-12-20T11:41:29.291Z,62.62
2022-12-20T11:45:06.696Z,62.64
2022-12-20T11:48:36.916Z,62.69
2022-12-20T11:51:51.101Z,62.61
2022-12-20T11:55:13.220Z,62.68
2022-12-20T11:58:27.807Z,62.66
2022-12-20T12:01:37.597Z,62.59
2022-12-20T12:04:46.429Z,62.83
2022-12-20T12:07:55.091Z,62.75
2022-12-20T12:11:02.883Z,62.71
2022-12-20T12:14:05.991Z,62.80
2022-12-20T12:17:45.223Z,62.95
2022-12-20T12:21:09.487Z,62.79
2022-12-20T12:24:23.168Z,62.85
2022-12-20T12:27:27.872Z,62.81
2022-12-20T12:30:37.924Z,62.79
2022-12-20T12:33:50.809Z,62.70
2022-12-20T12:37:07.763Z,62.94
2022-12-20T12:40:33.487Z,62.82
2022-12-20T12:43:40.893Z,62.95
2022-12-20T12:46:42.980Z,62.87
2022-12-20T12:49:50.275Z,62.98
2022-12-20T12:52:58.423Z,62.90
2022-12-20T12:56:43.174Z,62.97
2022-12-20T12:59:51.309Z,63.06
2022-12-20T13:02:53.081Z,63.09
2022-12-20T13:05:54.769Z,62.86
2022-12-20T13:08:59.396Z,63.58
2022-12-20T13:12:43.759Z,63.16
2022-12-20T13:15:47.267Z,62.96
2022-12-20T13:19:11.268Z,62.87
2022-12-20T13:22:12.874Z,62.96
2022-12-20T13:25:31.379Z,63.08
2022-12-20T13:28:32.867Z,62.98
2022-12-20T13:31:34.932Z,63.04
2022-12-20T13:34:54.224Z,63.24
2022-12-20T13:37:57.321Z,63.05
2022-12-20T13:41:01.626Z,63.13
2022-12-20T13:44:09.191Z,63.13
2022-12-20T13:47:26.293Z,63.15
2022-12-20T13:50:32.935Z,63.11
2022-12-20T13:53:35.011Z,63.13
2022-12-20T13:56:51.669Z,63.19
2022-12-20T14:00:03.551Z,63.29
2022-12-20T14:03:28.265Z,63.34
2022-12-20T14:06:29.825Z,63.39
2022-12-20T14:09:37.134Z,63.36
2022-12-20T14:12:44.867Z,63.37
2022-12-20T14:15:46.414Z,63.23
2022-12-20T14:18:49.976Z,63.26
2022-12-20T14:21:52.346Z,63.32
2022-12-20T14:24:54.316Z,63.34
2022-12-20T14:27:56.876Z,63.41
2022-12-20T14:31:01.389Z,63.38
2022-12-20T14:34:03.016Z,63.35
2022-12-20T14:37:34.371Z,63.32
2022-12-20T14:40:41.938Z,63.41
2022-12-20T14:43:43.526Z,63.49
2022-12-20T14:47:23.801Z,63.36
2022-12-20T14:50:35.961Z,63.47
2022-12-20T14:53:42.850Z,63.36
2022-12-20T14:56:53.511Z,63.45
2022-12-20T15:00:17.798Z,63.61
2022-12-20T15:03:21.674Z,63.53
2022-12-20T15:06:34.719Z,63.45
2022-12-20T15:09:36.330Z,63.38
2022-12-20T15:12:46.135Z,63.52
2022-12-20T15:15:48.240Z,63.65
2022-12-20T15:18:52.252Z,63.49
2022-12-20T15:21:54.613Z,63.60
2022-12-20T15:24:57.758Z,63.39
2022-12-20T15:27:59.329Z,63.62
2022-12-20T15:31:01.027Z,63.42
2022-12-20T15:34:38.021Z,63.54
2022-12-20T15:37:39.859Z,63.53
2022-12-20T15:40:41.474Z,63.48
2022-12-20T15:43:43.197Z,63.55
2022-12-20T15:46:44.901Z,63.41
2022-12-20T15:49:50.449Z,63.41
2022-12-20T15:52:52.395Z,63.49
2022-12-20T15:55:56.690Z,63.40
2022-12-20T15:58:58.240Z,63.34
2022-12-20T16:02:00.681Z,63.36
2022-12-20T16:05:02.385Z,63.35
2022-12-20T16:08:04.079Z,63.43
2022-12-20T16:11:19.935Z,63.43
2022-12-20T16:14:21.775Z,63.35
2022-12-20T16:17:24.047Z,63.47
2022-12-20T16:20:27.584Z,63.51
2022-12-20T16:23:29.152Z,63.40
2022-12-20T16:26:30.697Z,63.52
2022-12-20T16:29:32.268Z,63.53
2022-12-20T16:32:33.819Z,63.51
2022-12-20T16:35:37.433Z,63.49
2022-12-20T16:38:39.024Z,63.54
2022-12-20T16:41:43.599Z,63.32
2022-12-20T16:44:46.156Z,63.37
2022-12-20T16:47:48.992Z,63.55
2022-12-20T16:50:50.549Z,63.39
2022-12-20T16:54:18.631Z,63.45
2022-12-20T16:57:21.564Z,63.51
2022-12-20T17:00:27.057Z,63.49
2022-12-20T17:03:28.811Z,63.41
2022-12-20T17:06:30.449Z,63.63
2022-12-20T17:12:51.758Z,63.62
2022-12-20T17:15:54.581Z,63.56
2022-12-20T17:18:58.196Z,63.50
2022-12-20T17:25:21.973Z,63.52
2022-12-20T17:28:26.272Z,63.54
2022-12-20T17:31:34.373Z,63.41
2022-12-20T17:34:36.551Z,63.43
2022-12-20T17:37:38.060Z,63.56
2022-12-20T17:40:39.657Z,63.58
2022-12-20T17:43:41.225Z,63.59
2022-12-20T17:46:42.802Z,63.65
2022-12-20T17:49:45.540Z,63.59
2022-12-20T17:52:47.949Z,63.63
2022-12-20T17:55:49.475Z,63.50
2022-12-20T17:58:51.584Z,63.56
2022-12-20T18:01:53.317Z,63.67
2022-12-20T18:04:54.975Z,63.46
2022-12-20T18:07:56.596Z,63.65
2022-12-20T18:10:58.538Z,63.63
2022-12-20T18:14:00.731Z,63.63
2022-12-20T18:17:02.616Z,63.50
2022-12-20T18:20:06.906Z,63.63
2022-12-20T18:23:08.625Z,63.54
2022-12-20T18:26:12.953Z,63.58
2022-12-20T18:29:14.708Z,63.71
2022-12-20T18:32:16.523Z,63.78
2022-12-20T18:35:18.086Z,63.75
2022-12-20T18:38:23.422Z,63.65
2022-12-20T18:41:28.093Z,63.57
2022-12-20T18:44:29.738Z,63.69
2022-12-20T18:47:35.336Z,63.66
2022-12-20T18:50:37.045Z,63.67
2022-12-20T18:53:40.296Z,63.58
2022-12-20T18:56:41.966Z,63.61
2022-12-20T18:59:43.568Z,63.65
2022-12-20T19:02:45.227Z,63.78
2022-12-20T19:05:53.021Z,63.71
2022-12-20T19:08:54.547Z,63.69
2022-12-20T19:11:57.788Z,63.72
2022-12-20T19:14:59.643Z,63.69
2022-12-20T19:18:01.286Z,63.77
2022-12-20T19:21:12.496Z,63.76
2022-12-20T19:24:14.046Z,63.69
2022-12-20T19:27:15.893Z,63.72
2022-12-20T19:30:17.565Z,63.70
2022-12-20T19:33:19.592Z,63.79
2022-12-20T19:36:34.661Z,63.60
2022-12-20T19:39:36.299Z,63.78
2022-12-20T19:42:38.082Z,63.67
2022-12-20T19:45:39.790Z,63.81
2022-12-20T19:48:41.395Z,63.85
2022-12-20T19:51:43.779Z,63.61
2022-12-20T19:54:45.329Z,63.79
2022-12-20T19:57:47.266Z,63.72
2022-12-20T20:00:51.966Z,63.84
2022-12-20T20:03:55.110Z,63.79
2022-12-20T20:06:56.721Z,63.81
2022-12-20T20:09:58.252Z,63.68
2022-12-20T20:13:00.000Z,63.77
2022-12-20T20:16:03.356Z,63.74
2022-12-20T20:19:05.727Z,63.62
2022-12-20T20:22:07.391Z,63.79
2022-12-20T20:25:09.671Z,63.99
2022-12-20T20:28:11.256Z,63.74
2022-12-20T20:31:14.715Z,63.65
2022-12-20T20:34:16.484Z,63.78
2022-12-20T20:37:18.084Z,63.86
2022-12-20T20:40:19.661Z,63.87
2022-12-20T20:43:21.748Z,63.85
2022-12-20T20:46:23.391Z,63.71
2022-12-20T20:49:25.204Z,63.82
2022-12-20T20:52:27.203Z,63.76
2022-12-20T20:55:28.788Z,63.75
2022-12-20T20:58:30.547Z,63.71
2022-12-20T21:01:32.194Z,63.65
2022-12-20T21:04:33.848Z,63.79
2022-12-20T21:07:36.167Z,63.74
2022-12-20T21:10:38.016Z,63.63
2022-12-20T21:13:39.799Z,63.87
2022-12-20T21:16:41.446Z,63.97
2022-12-20T21:19:43.031Z,63.86
2022-12-20T21:22:45.247Z,63.89
2022-12-20T21:25:55.785Z,63.74
2022-12-20T21:29:01.064Z,63.81
2022-12-20T21:32:03.408Z,63.73
2022-12-20T21:35:05.355Z,63.73
2022-12-20T21:38:06.873Z,63.70
2022-12-20T21:41:12.433Z,63.72
2022-12-20T21:44:14.013Z,63.85
2022-12-20T21:47:15.521Z,63.83
2022-12-20T21:50:17.126Z,63.77
2022-12-20T21:53:19.753Z,63.89
2022-12-20T21:56:22.613Z,63.87
2022-12-20T21:59:24.709Z,63.84
2022-12-20T22:02:27.521Z,63.78
2022-12-20T22:05:29.145Z,63.90
2022-12-20T22:08:31.905Z,63.76
2022-12-20T22:11:34.493Z,63.81
2022-12-20T22:14:36.043Z,63.78
2022-12-20T22:17:37.578Z,63.73
2022-12-20T22:20:39.148Z,63.91
2022-12-20T22:23:41.331Z,63.89
2022-12-20T22:26:43.000Z,63.93
2022-12-20T22:29:44.589Z,63.96
2022-12-20T22:32:46.295Z,63.77
2022-12-20T22:35:47.813Z,63.98
2022-12-20T22:38:54.489Z,63.78
2022-12-20T22:41:56.045Z,63.93
2022-12-20T22:44:57.584Z,63.85
2022-12-20T22:47:59.125Z,64.00
2022-12-20T22:51:10.121Z,63.89
2022-12-20T22:54:11.667Z,63.84
2022-12-20T22:57:15.092Z,63.87
2022-12-20T23:00:16.904Z,63.83
2022-12-20T23:03:18.541Z,64.01
2022-12-20T23:06:21.690Z,63.84
2022-12-20T23:09:26.848Z,64.03
2022-12-20T23:12:46.955Z,63.98
2022-12-20T23:15:48.827Z,63.82
2022-12-20T23:18:53.701Z,64.08
2022-12-20T23:22:13.773Z,63.77
2022-12-20T23:25:18.289Z,63.87
2022-12-20T23:28:19.837Z,63.88
2022-12-20T23:31:21.441Z,63.92
2022-12-20T23:34:23.392Z,64.29
2022-12-20T23:37:25.207Z,64.23
2022-12-20T23:40:26.819Z,64.09
2022-12-20T23:43:31.248Z,64.16
2022-12-20T23:46:33.757Z,64.20
2022-12-20T23:49:35.391Z,64.30
2022-12-20T23:52:36.988Z,64.21
2022-12-20T23:55:38.532Z,64.12
2022-12-20T23:58:40.083Z,64.06
